sensor_id;sensor_type;location;lat;lon;timestamp;P1;durP1;ratioP1;P2;durP2;ratioP2
22614;SDS011;11474;50.790;0.298;2023-02-28T00:02:20;11.33;;;3.07;;
22614;SDS011;11474;50.790;0.298;2023-02-28T00:04:46;9.38;;;2.67;;
22614;SDS011;11474;50.790;0.298;2023-02-28T00:07:18;13.13;;;3.10;;
22614;SDS011;11474;50.790;0.298;2023-02-28T00:09:44;12.77;;;3.90;;
22614;SDS011;11474;50.790;0.298;2023-02-28T00:12:10;12.40;;;2.92;;
22614;SDS011;11474;50.790;0.298;2023-02-28T00:14:36;12.15;;;2.72;;
22614;SDS011;11474;50.790;0.298;2023-02-28T00:17:02;11.00;;;3.03;;
22614;SDS011;11474;50.790;0.298;2023-02-28T00:19:28;11.07;;;2.47;;
22614;SDS011;11474;50.790;0.298;2023-02-28T00:21:54;13.50;;;2.88;;
22614;SDS011;11474;50.790;0.298;2023-02-28T00:24:20;10.57;;;3.10;;
22614;SDS011;11474;50.790;0.298;2023-02-28T00:26:46;9.18;;;2.70;;
22614;SDS011;11474;50.790;0.298;2023-02-28T00:29:12;11.30;;;2.80;;
22614;SDS011;11474;50.790;0.298;2023-02-28T00:31:38;11.20;;;3.22;;
22614;SDS011;11474;50.790;0.298;2023-02-28T00:34:04;10.07;;;2.45;;
22614;SDS011;11474;50.790;0.298;2023-02-28T00:36:30;8.90;;;2.60;;
22614;SDS011;11474;50.790;0.298;2023-02-28T00:38:56;11.77;;;2.80;;
22614;SDS011;11474;50.790;0.298;2023-02-28T00:41:22;10.48;;;2.90;;
22614;SDS011;11474;50.790;0.298;2023-02-28T00:43:48;7.93;;;2.57;;
22614;SDS011;11474;50.790;0.298;2023-02-28T00:46:14;10.95;;;2.63;;
22614;SDS011;11474;50.790;0.298;2023-02-28T00:48:40;10.57;;;2.80;;
22614;SDS011;11474;50.790;0.298;2023-02-28T00:51:06;11.10;;;2.70;;
22614;SDS011;11474;50.790;0.298;2023-02-28T00:53:32;11.10;;;2.80;;
22614;SDS011;11474;50.790;0.298;2023-02-28T00:55:58;11.20;;;2.92;;
22614;SDS011;11474;50.790;0.298;2023-02-28T00:58:25;11.43;;;2.72;;
22614;SDS011;11474;50.790;0.298;2023-02-28T01:00:51;11.90;;;2.97;;
22614;SDS011;11474;50.790;0.298;2023-02-28T01:03:18;8.63;;;2.72;;
22614;SDS011;11474;50.790;0.298;2023-02-28T01:05:45;10.68;;;2.60;;
22614;SDS011;11474;50.790;0.298;2023-02-28T01:08:11;9.10;;;2.93;;
22614;SDS011;11474;50.790;0.298;2023-02-28T01:10:38;9.95;;;2.58;;
22614;SDS011;11474;50.790;0.298;2023-02-28T01:13:04;15.57;;;3.30;;
22614;SDS011;11474;50.790;0.298;2023-02-28T01:15:31;11.45;;;2.78;;
22614;SDS011;11474;50.790;0.298;2023-02-28T01:17:57;9.13;;;2.83;;
22614;SDS011;11474;50.790;0.298;2023-02-28T01:20:23;13.10;;;2.42;;
22614;SDS011;11474;50.790;0.298;2023-02-28T01:22:50;8.93;;;2.58;;
22614;SDS011;11474;50.790;0.298;2023-02-28T01:25:16;8.88;;;2.13;;
22614;SDS011;11474;50.790;0.298;2023-02-28T01:27:42;11.95;;;2.78;;
22614;SDS011;11474;50.790;0.298;2023-02-28T01:30:08;15.38;;;2.72;;
22614;SDS011;11474;50.790;0.298;2023-02-28T01:32:35;8.82;;;2.30;;
22614;SDS011;11474;50.790;0.298;2023-02-28T01:35:01;10.90;;;2.42;;
22614;SDS011;11474;50.790;0.298;2023-02-28T01:37:27;9.27;;;2.25;;
22614;SDS011;11474;50.790;0.298;2023-02-28T01:39:53;8.23;;;2.30;;
22614;SDS011;11474;50.790;0.298;2023-02-28T01:42:19;16.75;;;2.50;;
22614;SDS011;11474;50.790;0.298;2023-02-28T01:45:02;12.80;;;2.75;;
22614;SDS011;11474;50.790;0.298;2023-02-28T01:47:36;13.85;;;2.47;;
22614;SDS011;11474;50.790;0.298;2023-02-28T01:50:06;11.93;;;2.42;;
22614;SDS011;11474;50.790;0.298;2023-02-28T01:52:33;11.55;;;2.47;;
22614;SDS011;11474;50.790;0.298;2023-02-28T01:55:00;9.57;;;2.13;;
22614;SDS011;11474;50.790;0.298;2023-02-28T01:57:34;11.30;;;2.50;;
22614;SDS011;11474;50.790;0.298;2023-02-28T02:00:09;8.50;;;2.30;;
22614;SDS011;11474;50.790;0.298;2023-02-28T02:02:38;8.23;;;2.10;;
22614;SDS011;11474;50.790;0.298;2023-02-28T02:05:15;7.53;;;2.03;;
22614;SDS011;11474;50.790;0.298;2023-02-28T02:07:42;10.88;;;2.70;;
22614;SDS011;11474;50.790;0.298;2023-02-28T02:10:16;12.68;;;2.25;;
22614;SDS011;11474;50.790;0.298;2023-02-28T02:13:01;12.57;;;2.75;;
22614;SDS011;11474;50.790;0.298;2023-02-28T02:15:34;11.98;;;2.40;;
22614;SDS011;11474;50.790;0.298;2023-02-28T02:18:10;12.70;;;2.67;;
22614;SDS011;11474;50.790;0.298;2023-02-28T02:23:20;9.15;;;2.42;;
22614;SDS011;11474;50.790;0.298;2023-02-28T02:28:43;14.90;;;3.17;;
22614;SDS011;11474;50.790;0.298;2023-02-28T02:36:42;10.65;;;2.50;;
22614;SDS011;11474;50.790;0.298;2023-02-28T02:41:51;13.88;;;3.10;;
22614;SDS011;11474;50.790;0.298;2023-02-28T02:46:59;11.63;;;2.77;;
22614;SDS011;11474;50.790;0.298;2023-02-28T02:49:30;15.32;;;3.40;;
22614;SDS011;11474;50.790;0.298;2023-02-28T02:51:57;16.02;;;3.30;;
22614;SDS011;11474;50.790;0.298;2023-02-28T02:54:28;12.60;;;3.20;;
22614;SDS011;11474;50.790;0.298;2023-02-28T02:56:57;14.90;;;3.40;;
22614;SDS011;11474;50.790;0.298;2023-02-28T02:59:24;13.55;;;2.92;;
22614;SDS011;11474;50.790;0.298;2023-02-28T03:01:52;11.73;;;3.13;;
22614;SDS011;11474;50.790;0.298;2023-02-28T03:04:19;15.27;;;3.35;;
22614;SDS011;11474;50.790;0.298;2023-02-28T03:06:47;13.60;;;3.35;;
22614;SDS011;11474;50.790;0.298;2023-02-28T03:09:13;14.52;;;3.38;;
22614;SDS011;11474;50.790;0.298;2023-02-28T03:11:39;13.13;;;3.17;;
22614;SDS011;11474;50.790;0.298;2023-02-28T03:16:59;15.77;;;3.33;;
22614;SDS011;11474;50.790;0.298;2023-02-28T03:26:41;14.00;;;3.85;;
22614;SDS011;11474;50.790;0.298;2023-02-28T03:29:16;14.37;;;3.87;;
22614;SDS011;11474;50.790;0.298;2023-02-28T03:34:40;13.23;;;3.55;;
22614;SDS011;11474;50.790;0.298;2023-02-28T03:37:14;13.27;;;3.72;;
22614;SDS011;11474;50.790;0.298;2023-02-28T03:39:43;18.87;;;4.30;;
22614;SDS011;11474;50.790;0.298;2023-02-28T03:42:12;15.55;;;3.88;;
22614;SDS011;11474;50.790;0.298;2023-02-28T03:44:43;12.02;;;3.90;;
22614;SDS011;11474;50.790;0.298;2023-02-28T03:49:58;14.85;;;4.57;;
22614;SDS011;11474;50.790;0.298;2023-02-28T03:52:27;16.67;;;4.70;;
22614;SDS011;11474;50.790;0.298;2023-02-28T03:54:55;12.40;;;4.20;;
22614;SDS011;11474;50.790;0.298;2023-02-28T04:00:12;11.95;;;5.25;;
22614;SDS011;11474;50.790;0.298;2023-02-28T04:02:39;19.60;;;5.57;;
22614;SDS011;11474;50.790;0.298;2023-02-28T04:05:06;17.33;;;5.00;;
22614;SDS011;11474;50.790;0.298;2023-02-28T04:07:32;17.65;;;4.80;;
22614;SDS011;11474;50.790;0.298;2023-02-28T04:09:58;17.40;;;5.10;;
22614;SDS011;11474;50.790;0.298;2023-02-28T04:12:24;14.63;;;4.30;;
22614;SDS011;11474;50.790;0.298;2023-02-28T04:14:50;20.83;;;4.82;;
22614;SDS011;11474;50.790;0.298;2023-02-28T04:17:17;17.35;;;4.45;;
22614;SDS011;11474;50.790;0.298;2023-02-28T04:19:43;15.88;;;5.50;;
22614;SDS011;11474;50.790;0.298;2023-02-28T04:22:09;16.40;;;4.90;;
22614;SDS011;11474;50.790;0.298;2023-02-28T04:24:35;14.02;;;4.75;;
22614;SDS011;11474;50.790;0.298;2023-02-28T04:27:02;17.10;;;4.75;;
22614;SDS011;11474;50.790;0.298;2023-02-28T04:29:30;16.20;;;4.55;;
22614;SDS011;11474;50.790;0.298;2023-02-28T04:31:57;17.55;;;4.68;;
22614;SDS011;11474;50.790;0.298;2023-02-28T04:34:24;14.15;;;4.40;;
22614;SDS011;11474;50.790;0.298;2023-02-28T04:36:50;15.32;;;4.60;;
22614;SDS011;11474;50.790;0.298;2023-02-28T04:39:19;16.70;;;4.87;;
22614;SDS011;11474;50.790;0.298;2023-02-28T04:41:45;22.05;;;4.57;;
22614;SDS011;11474;50.790;0.298;2023-02-28T04:44:12;16.63;;;4.53;;
22614;SDS011;11474;50.790;0.298;2023-02-28T04:46:38;17.52;;;4.00;;
22614;SDS011;11474;50.790;0.298;2023-02-28T04:49:04;13.93;;;4.28;;
22614;SDS011;11474;50.790;0.298;2023-02-28T04:51:30;15.52;;;3.80;;
22614;SDS011;11474;50.790;0.298;2023-02-28T04:53:56;14.52;;;4.35;;
22614;SDS011;11474;50.790;0.298;2023-02-28T04:56:22;15.43;;;4.60;;
22614;SDS011;11474;50.790;0.298;2023-02-28T04:58:49;16.10;;;4.50;;
22614;SDS011;11474;50.790;0.298;2023-02-28T05:01:23;11.50;;;3.83;;
22614;SDS011;11474;50.790;0.298;2023-02-28T05:03:50;14.75;;;4.20;;
22614;SDS011;11474;50.790;0.298;2023-02-28T05:06:18;13.65;;;4.47;;
22614;SDS011;11474;50.790;0.298;2023-02-28T05:08:45;17.13;;;4.47;;
22614;SDS011;11474;50.790;0.298;2023-02-28T05:11:21;16.42;;;4.65;;
22614;SDS011;11474;50.790;0.298;2023-02-28T05:13:48;12.73;;;4.38;;
22614;SDS011;11474;50.790;0.298;2023-02-28T05:16:14;15.60;;;4.10;;
22614;SDS011;11474;50.790;0.298;2023-02-28T05:18:40;14.00;;;4.30;;
22614;SDS011;11474;50.790;0.298;2023-02-28T05:21:14;14.10;;;4.38;;
22614;SDS011;11474;50.790;0.298;2023-02-28T05:23:48;17.25;;;4.55;;
22614;SDS011;11474;50.790;0.298;2023-02-28T05:26:14;13.02;;;4.10;;
22614;SDS011;11474;50.790;0.298;2023-02-28T05:28:40;17.23;;;4.50;;
22614;SDS011;11474;50.790;0.298;2023-02-28T05:31:07;12.95;;;4.50;;
22614;SDS011;11474;50.790;0.298;2023-02-28T05:33:33;16.17;;;4.38;;
22614;SDS011;11474;50.790;0.298;2023-02-28T05:36:00;16.10;;;4.83;;
22614;SDS011;11474;50.790;0.298;2023-02-28T05:38:26;13.93;;;5.00;;
22614;SDS011;11474;50.790;0.298;2023-02-28T05:40:52;17.90;;;5.50;;
22614;SDS011;11474;50.790;0.298;2023-02-28T05:43:18;17.85;;;5.70;;
22614;SDS011;11474;50.790;0.298;2023-02-28T05:45:44;15.88;;;5.20;;
22614;SDS011;11474;50.790;0.298;2023-02-28T05:48:10;17.42;;;5.28;;
22614;SDS011;11474;50.790;0.298;2023-02-28T05:50:36;16.85;;;5.93;;
22614;SDS011;11474;50.790;0.298;2023-02-28T05:53:02;23.80;;;5.53;;
22614;SDS011;11474;50.790;0.298;2023-02-28T05:55:28;15.68;;;5.32;;
22614;SDS011;11474;50.790;0.298;2023-02-28T05:57:55;15.57;;;5.55;;
22614;SDS011;11474;50.790;0.298;2023-02-28T06:00:21;15.90;;;5.43;;
22614;SDS011;11474;50.790;0.298;2023-02-28T06:02:47;18.80;;;5.93;;
22614;SDS011;11474;50.790;0.298;2023-02-28T06:05:15;14.40;;;5.20;;
22614;SDS011;11474;50.790;0.298;2023-02-28T06:07:41;15.57;;;5.75;;
22614;SDS011;11474;50.790;0.298;2023-02-28T06:10:08;18.42;;;5.75;;
22614;SDS011;11474;50.790;0.298;2023-02-28T06:12:34;17.60;;;6.00;;
22614;SDS011;11474;50.790;0.298;2023-02-28T06:15:00;16.52;;;5.60;;
22614;SDS011;11474;50.790;0.298;2023-02-28T06:17:26;20.05;;;5.65;;
22614;SDS011;11474;50.790;0.298;2023-02-28T06:19:52;14.70;;;6.32;;
22614;SDS011;11474;50.790;0.298;2023-02-28T06:22:18;15.90;;;5.73;;
22614;SDS011;11474;50.790;0.298;2023-02-28T06:24:44;17.33;;;6.32;;
22614;SDS011;11474;50.790;0.298;2023-02-28T06:27:10;20.95;;;6.32;;
22614;SDS011;11474;50.790;0.298;2023-02-28T06:29:36;22.23;;;6.80;;
22614;SDS011;11474;50.790;0.298;2023-02-28T06:32:04;16.95;;;6.18;;
22614;SDS011;11474;50.790;0.298;2023-02-28T06:34:31;21.10;;;6.45;;
22614;SDS011;11474;50.790;0.298;2023-02-28T06:36:58;17.80;;;6.22;;
22614;SDS011;11474;50.790;0.298;2023-02-28T06:39:27;15.95;;;6.22;;
22614;SDS011;11474;50.790;0.298;2023-02-28T06:41:53;17.85;;;6.38;;
22614;SDS011;11474;50.790;0.298;2023-02-28T06:44:19;17.67;;;5.95;;
22614;SDS011;11474;50.790;0.298;2023-02-28T06:46:45;15.40;;;6.18;;
22614;SDS011;11474;50.790;0.298;2023-02-28T06:49:12;21.23;;;6.90;;
22614;SDS011;11474;50.790;0.298;2023-02-28T06:51:41;17.00;;;6.50;;
22614;SDS011;11474;50.790;0.298;2023-02-28T06:54:09;19.00;;;6.57;;
22614;SDS011;11474;50.790;0.298;2023-02-28T06:56:36;15.10;;;6.72;;
22614;SDS011;11474;50.790;0.298;2023-02-28T06:59:02;15.07;;;6.63;;
22614;SDS011;11474;50.790;0.298;2023-02-28T07:01:28;17.05;;;7.50;;
22614;SDS011;11474;50.790;0.298;2023-02-28T07:03:56;22.75;;;7.20;;
22614;SDS011;11474;50.790;0.298;2023-02-28T07:06:23;14.55;;;6.93;;
22614;SDS011;11474;50.790;0.298;2023-02-28T07:08:49;18.73;;;6.90;;
22614;SDS011;11474;50.790;0.298;2023-02-28T07:11:16;17.65;;;6.93;;
22614;SDS011;11474;50.790;0.298;2023-02-28T07:13:42;17.83;;;7.80;;
22614;SDS011;11474;50.790;0.298;2023-02-28T07:16:09;18.42;;;7.82;;
22614;SDS011;11474;50.790;0.298;2023-02-28T07:18:36;20.47;;;7.80;;
22614;SDS011;11474;50.790;0.298;2023-02-28T07:21:06;18.92;;;7.43;;
22614;SDS011;11474;50.790;0.298;2023-02-28T07:23:33;21.13;;;7.75;;
22614;SDS011;11474;50.790;0.298;2023-02-28T07:25:59;21.60;;;8.02;;
22614;SDS011;11474;50.790;0.298;2023-02-28T07:28:25;19.25;;;8.07;;
22614;SDS011;11474;50.790;0.298;2023-02-28T07:30:51;18.50;;;8.00;;
22614;SDS011;11474;50.790;0.298;2023-02-28T07:33:17;23.00;;;8.30;;
22614;SDS011;11474;50.790;0.298;2023-02-28T07:35:43;19.23;;;7.50;;
22614;SDS011;11474;50.790;0.298;2023-02-28T07:38:09;18.10;;;8.07;;
22614;SDS011;11474;50.790;0.298;2023-02-28T07:40:37;20.98;;;7.72;;
22614;SDS011;11474;50.790;0.298;2023-02-28T07:43:03;18.08;;;7.40;;
22614;SDS011;11474;50.790;0.298;2023-02-28T07:45:29;21.73;;;7.35;;
22614;SDS011;11474;50.790;0.298;2023-02-28T07:47:59;15.38;;;7.45;;
22614;SDS011;11474;50.790;0.298;2023-02-28T07:50:26;17.30;;;7.50;;
22614;SDS011;11474;50.790;0.298;2023-02-28T07:52:56;17.13;;;7.18;;
22614;SDS011;11474;50.790;0.298;2023-02-28T07:55:22;18.38;;;7.28;;
22614;SDS011;11474;50.790;0.298;2023-02-28T07:57:48;19.27;;;7.57;;
22614;SDS011;11474;50.790;0.298;2023-02-28T08:00:14;19.88;;;7.80;;
22614;SDS011;11474;50.790;0.298;2023-02-28T08:02:41;17.77;;;7.25;;
22614;SDS011;11474;50.790;0.298;2023-02-28T08:05:07;17.77;;;7.53;;
22614;SDS011;11474;50.790;0.298;2023-02-28T08:07:33;19.65;;;7.68;;
22614;SDS011;11474;50.790;0.298;2023-02-28T08:10:00;18.27;;;7.25;;
22614;SDS011;11474;50.790;0.298;2023-02-28T08:12:26;17.40;;;7.40;;
22614;SDS011;11474;50.790;0.298;2023-02-28T08:14:52;15.82;;;6.60;;
22614;SDS011;11474;50.790;0.298;2023-02-28T08:17:18;17.45;;;6.80;;
22614;SDS011;11474;50.790;0.298;2023-02-28T08:19:47;17.52;;;6.65;;
22614;SDS011;11474;50.790;0.298;2023-02-28T08:22:13;15.10;;;6.38;;
22614;SDS011;11474;50.790;0.298;2023-02-28T08:24:43;16.45;;;6.03;;
22614;SDS011;11474;50.790;0.298;2023-02-28T08:27:09;15.30;;;6.70;;
22614;SDS011;11474;50.790;0.298;2023-02-28T08:29:38;17.42;;;6.35;;
22614;SDS011;11474;50.790;0.298;2023-02-28T08:32:05;18.17;;;6.50;;
22614;SDS011;11474;50.790;0.298;2023-02-28T08:34:31;13.70;;;6.28;;
22614;SDS011;11474;50.790;0.298;2023-02-28T08:36:57;16.58;;;6.05;;
22614;SDS011;11474;50.790;0.298;2023-02-28T08:39:24;16.40;;;6.53;;
22614;SDS011;11474;50.790;0.298;2023-02-28T08:41:50;17.08;;;7.00;;
22614;SDS011;11474;50.790;0.298;2023-02-28T08:44:16;17.35;;;6.50;;
22614;SDS011;11474;50.790;0.298;2023-02-28T08:46:42;15.10;;;5.72;;
22614;SDS011;11474;50.790;0.298;2023-02-28T08:49:09;13.70;;;5.88;;
22614;SDS011;11474;50.790;0.298;2023-02-28T08:51:36;14.20;;;7.03;;
22614;SDS011;11474;50.790;0.298;2023-02-28T08:54:04;16.05;;;6.68;;
22614;SDS011;11474;50.790;0.298;2023-02-28T08:56:30;17.17;;;6.40;;
22614;SDS011;11474;50.790;0.298;2023-02-28T08:58:56;15.70;;;5.70;;
22614;SDS011;11474;50.790;0.298;2023-02-28T09:01:24;11.73;;;5.32;;
22614;SDS011;11474;50.790;0.298;2023-02-28T09:03:51;13.65;;;5.10;;
22614;SDS011;11474;50.790;0.298;2023-02-28T09:06:18;10.43;;;4.80;;
22614;SDS011;11474;50.790;0.298;2023-02-28T09:08:44;11.83;;;4.80;;
22614;SDS011;11474;50.790;0.298;2023-02-28T09:11:11;12.43;;;4.70;;
22614;SDS011;11474;50.790;0.298;2023-02-28T09:13:38;11.05;;;4.40;;
22614;SDS011;11474;50.790;0.298;2023-02-28T09:16:04;11.82;;;3.95;;
22614;SDS011;11474;50.790;0.298;2023-02-28T09:18:31;12.05;;;4.57;;
22614;SDS011;11474;50.790;0.298;2023-02-28T09:20:57;14.02;;;4.53;;
22614;SDS011;11474;50.790;0.298;2023-02-28T09:23:23;10.13;;;4.05;;
22614;SDS011;11474;50.790;0.298;2023-02-28T09:25:51;10.93;;;3.90;;
22614;SDS011;11474;50.790;0.298;2023-02-28T09:28:17;10.63;;;3.70;;
22614;SDS011;11474;50.790;0.298;2023-02-28T09:30:44;10.38;;;3.67;;
22614;SDS011;11474;50.790;0.298;2023-02-28T09:33:11;10.73;;;3.88;;
22614;SDS011;11474;50.790;0.298;2023-02-28T09:35:37;8.07;;;3.33;;
22614;SDS011;11474;50.790;0.298;2023-02-28T09:38:03;9.02;;;3.20;;
22614;SDS011;11474;50.790;0.298;2023-02-28T09:40:30;9.13;;;3.25;;
22614;SDS011;11474;50.790;0.298;2023-02-28T09:42:57;8.80;;;3.25;;
22614;SDS011;11474;50.790;0.298;2023-02-28T09:45:26;9.85;;;3.17;;
22614;SDS011;11474;50.790;0.298;2023-02-28T09:47:56;7.30;;;2.90;;
22614;SDS011;11474;50.790;0.298;2023-02-28T09:50:33;8.52;;;2.72;;
22614;SDS011;11474;50.790;0.298;2023-02-28T09:53:13;6.57;;;2.30;;
22614;SDS011;11474;50.790;0.298;2023-02-28T09:55:48;5.68;;;2.30;;
22614;SDS011;11474;50.790;0.298;2023-02-28T09:58:49;8.30;;;2.60;;
22614;SDS011;11474;50.790;0.298;2023-02-28T10:06:22;5.00;;;2.20;;
22614;SDS011;11474;50.790;0.298;2023-02-28T10:08:56;8.00;;;2.28;;
22614;SDS011;11474;50.790;0.298;2023-02-28T10:11:24;6.40;;;2.10;;
22614;SDS011;11474;50.790;0.298;2023-02-28T10:13:59;5.50;;;1.98;;
22614;SDS011;11474;50.790;0.298;2023-02-28T10:16:30;4.50;;;2.05;;
22614;SDS011;11474;50.790;0.298;2023-02-28T10:18:59;3.50;;;1.80;;
22614;SDS011;11474;50.790;0.298;2023-02-28T10:21:29;6.97;;;1.90;;
22614;SDS011;11474;50.790;0.298;2023-02-28T10:24:01;4.15;;;1.70;;
22614;SDS011;11474;50.790;0.298;2023-02-28T10:26:28;4.68;;;1.70;;
22614;SDS011;11474;50.790;0.298;2023-02-28T10:28:55;4.30;;;1.70;;
22614;SDS011;11474;50.790;0.298;2023-02-28T10:31:21;5.63;;;1.88;;
22614;SDS011;11474;50.790;0.298;2023-02-28T10:33:47;3.55;;;1.95;;
22614;SDS011;11474;50.790;0.298;2023-02-28T10:36:15;5.57;;;1.85;;
22614;SDS011;11474;50.790;0.298;2023-02-28T10:38:42;3.40;;;1.40;;
22614;SDS011;11474;50.790;0.298;2023-02-28T10:41:12;6.03;;;1.50;;
22614;SDS011;11474;50.790;0.298;2023-02-28T10:43:40;2.17;;;1.40;;
22614;SDS011;11474;50.790;0.298;2023-02-28T10:51:08;5.45;;;1.35;;
22614;SDS011;11474;50.790;0.298;2023-02-28T10:53:36;3.90;;;1.65;;
22614;SDS011;11474;50.790;0.298;2023-02-28T10:56:24;3.72;;;1.40;;
22614;SDS011;11474;50.790;0.298;2023-02-28T10:59:00;2.90;;;1.27;;
22614;SDS011;11474;50.790;0.298;2023-02-28T11:03:55;3.47;;;1.30;;
22614;SDS011;11474;50.790;0.298;2023-02-28T11:06:26;3.40;;;1.60;;
22614;SDS011;11474;50.790;0.298;2023-02-28T11:08:53;2.55;;;1.50;;
22614;SDS011;11474;50.790;0.298;2023-02-28T11:11:20;3.90;;;1.45;;
22614;SDS011;11474;50.790;0.298;2023-02-28T11:13:48;4.90;;;2.27;;
22614;SDS011;11474;50.790;0.298;2023-02-28T11:16:16;2.47;;;1.40;;
22614;SDS011;11474;50.790;0.298;2023-02-28T11:21:08;4.67;;;1.57;;
22614;SDS011;11474;50.790;0.298;2023-02-28T11:23:35;4.40;;;1.67;;
22614;SDS011;11474;50.790;0.298;2023-02-28T11:26:03;3.35;;;1.50;;
22614;SDS011;11474;50.790;0.298;2023-02-28T11:33:32;2.97;;;1.40;;
22614;SDS011;11474;50.790;0.298;2023-02-28T11:36:10;3.00;;;1.63;;
22614;SDS011;11474;50.790;0.298;2023-02-28T11:38:37;3.33;;;1.45;;
22614;SDS011;11474;50.790;0.298;2023-02-28T11:41:28;3.60;;;1.42;;
22614;SDS011;11474;50.790;0.298;2023-02-28T11:46:51;3.45;;;1.35;;
22614;SDS011;11474;50.790;0.298;2023-02-28T11:59:59;4.90;;;1.73;;
22614;SDS011;11474;50.790;0.298;2023-02-28T12:02:51;2.83;;;1.23;;
22614;SDS011;11474;50.790;0.298;2023-02-28T12:05:33;1.95;;;1.50;;
22614;SDS011;11474;50.790;0.298;2023-02-28T12:10:37;4.40;;;1.30;;
22614;SDS011;11474;50.790;0.298;2023-02-28T12:13:29;3.83;;;1.42;;
22614;SDS011;11474;50.790;0.298;2023-02-28T12:16:12;2.38;;;1.67;;
22614;SDS011;11474;50.790;0.298;2023-02-28T12:18:47;3.58;;;1.70;;
22614;SDS011;11474;50.790;0.298;2023-02-28T12:21:35;3.72;;;1.67;;
22614;SDS011;11474;50.790;0.298;2023-02-28T12:31:41;4.00;;;1.90;;
22614;SDS011;11474;50.790;0.298;2023-02-28T12:34:12;5.22;;;1.55;;
22614;SDS011;11474;50.790;0.298;2023-02-28T12:36:39;6.95;;;2.15;;
22614;SDS011;11474;50.790;0.298;2023-02-28T12:41:36;2.58;;;1.60;;
22614;SDS011;11474;50.790;0.298;2023-02-28T12:44:12;3.05;;;1.67;;
22614;SDS011;11474;50.790;0.298;2023-02-28T12:46:41;2.42;;;1.58;;
22614;SDS011;11474;50.790;0.298;2023-02-28T12:49:10;3.10;;;1.70;;
22614;SDS011;11474;50.790;0.298;2023-02-28T12:51:38;5.03;;;1.77;;
22614;SDS011;11474;50.790;0.298;2023-02-28T12:59:53;2.72;;;1.70;;
22614;SDS011;11474;50.790;0.298;2023-02-28T13:07:28;5.40;;;2.33;;
22614;SDS011;11474;50.790;0.298;2023-02-28T13:09:57;6.47;;;2.60;;
22614;SDS011;11474;50.790;0.298;2023-02-28T13:12:23;3.63;;;2.20;;
22614;SDS011;11474;50.790;0.298;2023-02-28T13:14:50;3.40;;;1.92;;
22614;SDS011;11474;50.790;0.298;2023-02-28T13:17:20;5.07;;;2.30;;
22614;SDS011;11474;50.790;0.298;2023-02-28T13:22:18;5.13;;;1.97;;
22614;SDS011;11474;50.790;0.298;2023-02-28T13:27:12;4.20;;;2.10;;
22614;SDS011;11474;50.790;0.298;2023-02-28T13:29:49;5.18;;;2.13;;
22614;SDS011;11474;50.790;0.298;2023-02-28T13:47:28;4.15;;;2.50;;
22614;SDS011;11474;50.790;0.298;2023-02-28T13:49:54;4.25;;;2.60;;
22614;SDS011;11474;50.790;0.298;2023-02-28T13:53:04;4.03;;;2.40;;
22614;SDS011;11474;50.790;0.298;2023-02-28T13:55:45;3.40;;;2.30;;
22614;SDS011;11474;50.790;0.298;2023-02-28T14:03:44;5.47;;;2.70;;
22614;SDS011;11474;50.790;0.298;2023-02-28T14:08:45;5.60;;;2.97;;
22614;SDS011;11474;50.790;0.298;2023-02-28T14:11:23;4.43;;;2.75;;
22614;SDS011;11474;50.790;0.298;2023-02-28T14:13:50;5.07;;;2.95;;
22614;SDS011;11474;50.790;0.298;2023-02-28T14:16:17;5.68;;;2.90;;
22614;SDS011;11474;50.790;0.298;2023-02-28T14:21:25;6.05;;;3.00;;
22614;SDS011;11474;50.790;0.298;2023-02-28T14:37:05;5.38;;;2.88;;
22614;SDS011;11474;50.790;0.298;2023-02-28T14:39:35;4.60;;;2.78;;
22614;SDS011;11474;50.790;0.298;2023-02-28T14:42:01;4.82;;;2.80;;
22614;SDS011;11474;50.790;0.298;2023-02-28T14:44:30;5.68;;;3.13;;
22614;SDS011;11474;50.790;0.298;2023-02-28T14:47:00;4.82;;;2.60;;
22614;SDS011;11474;50.790;0.298;2023-02-28T14:49:37;5.55;;;2.80;;
22614;SDS011;11474;50.790;0.298;2023-02-28T14:52:23;6.82;;;2.88;;
22614;SDS011;11474;50.790;0.298;2023-02-28T14:54:53;6.32;;;3.00;;
22614;SDS011;11474;50.790;0.298;2023-02-28T14:57:30;3.95;;;2.78;;
22614;SDS011;11474;50.790;0.298;2023-02-28T14:59:57;4.60;;;3.00;;
22614;SDS011;11474;50.790;0.298;2023-02-28T15:02:24;5.55;;;2.90;;
22614;SDS011;11474;50.790;0.298;2023-02-28T15:04:58;5.20;;;2.75;;
22614;SDS011;11474;50.790;0.298;2023-02-28T15:07:24;5.50;;;3.15;;
22614;SDS011;11474;50.790;0.298;2023-02-28T15:10:06;4.53;;;2.70;;
22614;SDS011;11474;50.790;0.298;2023-02-28T15:12:32;6.32;;;3.15;;
22614;SDS011;11474;50.790;0.298;2023-02-28T15:14:58;5.25;;;2.72;;
22614;SDS011;11474;50.790;0.298;2023-02-28T15:17:24;5.97;;;2.83;;
22614;SDS011;11474;50.790;0.298;2023-02-28T15:19:51;7.32;;;3.10;;
22614;SDS011;11474;50.790;0.298;2023-02-28T15:22:19;6.63;;;3.13;;
22614;SDS011;11474;50.790;0.298;2023-02-28T15:24:50;7.97;;;3.35;;
22614;SDS011;11474;50.790;0.298;2023-02-28T15:27:25;5.97;;;3.25;;
22614;SDS011;11474;50.790;0.298;2023-02-28T15:29:56;6.13;;;3.00;;
22614;SDS011;11474;50.790;0.298;2023-02-28T15:32:24;4.73;;;3.07;;
22614;SDS011;11474;50.790;0.298;2023-02-28T15:34:51;4.75;;;2.97;;
22614;SDS011;11474;50.790;0.298;2023-02-28T15:42:41;5.15;;;3.00;;
22614;SDS011;11474;50.790;0.298;2023-02-28T15:47:53;5.00;;;2.95;;
22614;SDS011;11474;50.790;0.298;2023-02-28T15:50:20;5.47;;;2.78;;
22614;SDS011;11474;50.790;0.298;2023-02-28T15:52:46;5.27;;;2.70;;
22614;SDS011;11474;50.790;0.298;2023-02-28T15:55:26;5.60;;;3.30;;
22614;SDS011;11474;50.790;0.298;2023-02-28T15:57:53;5.15;;;2.70;;
22614;SDS011;11474;50.790;0.298;2023-02-28T16:00:24;4.03;;;2.55;;
22614;SDS011;11474;50.790;0.298;2023-02-28T16:02:50;5.47;;;2.55;;
22614;SDS011;11474;50.790;0.298;2023-02-28T16:05:24;3.35;;;2.15;;
22614;SDS011;11474;50.790;0.298;2023-02-28T16:08:13;3.60;;;1.80;;
22614;SDS011;11474;50.790;0.298;2023-02-28T16:10:40;2.78;;;1.70;;
22614;SDS011;11474;50.790;0.298;2023-02-28T16:13:08;4.50;;;2.10;;
22614;SDS011;11474;50.790;0.298;2023-02-28T16:15:37;6.10;;;1.90;;
22614;SDS011;11474;50.790;0.298;2023-02-28T16:18:07;6.72;;;2.00;;
22614;SDS011;11474;50.790;0.298;2023-02-28T16:20:34;7.20;;;2.55;;
22614;SDS011;11474;50.790;0.298;2023-02-28T16:23:00;4.28;;;1.98;;
22614;SDS011;11474;50.790;0.298;2023-02-28T16:25:34;9.30;;;2.03;;
22614;SDS011;11474;50.790;0.298;2023-02-28T16:28:01;5.20;;;1.97;;
22614;SDS011;11474;50.790;0.298;2023-02-28T16:30:28;3.88;;;1.73;;
22614;SDS011;11474;50.790;0.298;2023-02-28T16:32:57;4.63;;;2.00;;
22614;SDS011;11474;50.790;0.298;2023-02-28T16:35:23;4.85;;;2.05;;
22614;SDS011;11474;50.790;0.298;2023-02-28T16:37:52;3.80;;;2.10;;
22614;SDS011;11474;50.790;0.298;2023-02-28T16:40:22;5.65;;;2.22;;
22614;SDS011;11474;50.790;0.298;2023-02-28T16:42:50;3.90;;;1.85;;
22614;SDS011;11474;50.790;0.298;2023-02-28T16:45:17;6.43;;;2.57;;
22614;SDS011;11474;50.790;0.298;2023-02-28T16:47:44;5.07;;;1.55;;
22614;SDS011;11474;50.790;0.298;2023-02-28T16:50:21;3.45;;;1.70;;
22614;SDS011;11474;50.790;0.298;2023-02-28T16:52:47;4.25;;;1.80;;
22614;SDS011;11474;50.790;0.298;2023-02-28T16:55:14;5.15;;;1.70;;
22614;SDS011;11474;50.790;0.298;2023-02-28T16:57:40;7.72;;;4.30;;
22614;SDS011;11474;50.790;0.298;2023-02-28T17:00:07;15.57;;;9.98;;
22614;SDS011;11474;50.790;0.298;2023-02-28T17:02:34;17.48;;;10.52;;
22614;SDS011;11474;50.790;0.298;2023-02-28T17:05:00;17.38;;;10.43;;
22614;SDS011;11474;50.790;0.298;2023-02-28T17:07:26;14.48;;;9.10;;
22614;SDS011;11474;50.790;0.298;2023-02-28T17:09:52;14.93;;;8.63;;
22614;SDS011;11474;50.790;0.298;2023-02-28T17:12:18;15.40;;;9.05;;
22614;SDS011;11474;50.790;0.298;2023-02-28T17:14:44;12.05;;;7.40;;